sensor_id;sensor_type;location;lat;lon;timestamp;pressure;altitude;pressure_sealevel;temperature;humidity
12868;BME280;33517;49.866;8.320;2023-07-28T00:01:26;99633.25;;;18.57;100.00
12868;BME280;33517;49.866;8.320;2023-07-28T00:04:17;99630.59;;;18.57;100.00
12868;BME280;33517;49.866;8.320;2023-07-28T00:07:09;99638.34;;;18.59;100.00
12868;BME280;33517;49.866;8.320;2023-07-28T00:10:01;99639.50;;;18.63;100.00
12868;BME280;33517;49.866;8.320;2023-07-28T00:12:55;99638.47;;;18.64;100.00
12868;BME280;33517;49.866;8.320;2023-07-28T00:15:47;99633.94;;;18.64;100.00
12868;BME280;33517;49.866;8.320;2023-07-28T00:18:39;99637.41;;;18.65;100.00
12868;BME280;33517;49.866;8.320;2023-07-28T00:21:31;99637.41;;;18.65;100.00
12868;BME280;33517;49.866;8.320;2023-07-28T00:24:23;99634.75;;;18.65;100.00
12868;BME280;33517;49.866;8.320;2023-07-28T00:27:15;99627.81;;;18.64;100.00
12868;BME280;33517;49.866;8.320;2023-07-28T00:30:10;99623.50;;;18.63;100.00
12868;BME280;33517;49.866;8.320;2023-07-28T00:33:02;99631.50;;;18.63;100.00
12868;BME280;33517;49.866;8.320;2023-07-28T00:35:54;99623.50;;;18.63;100.00
12868;BME280;33517;49.866;8.320;2023-07-28T00:38:51;99611.25;;;18.62;100.00
12868;BME280;33517;49.866;8.320;2023-07-28T00:41:43;99616.81;;;18.60;100.00
12868;BME280;33517;49.866;8.320;2023-07-28T00:44:35;99613.34;;;18.60;100.00
12868;BME280;33517;49.866;8.320;2023-07-28T00:47:28;99619.38;;;18.55;100.00
12868;BME280;33517;49.866;8.320;2023-07-28T00:50:21;99615.09;;;18.54;100.00
12868;BME280;33517;49.866;8.320;2023-07-28T00:53:13;99604.88;;;18.51;100.00
12868;BME280;33517;49.866;8.320;2023-07-28T00:56:05;99608.69;;;18.55;100.00
12868;BME280;33517;49.866;8.320;2023-07-28T00:58:57;99624.44;;;18.57;100.00
12868;BME280;33517;49.866;8.320;2023-07-28T01:01:49;99611.38;;;18.55;100.00
12868;BME280;33517;49.866;8.320;2023-07-28T01:04:43;99616.94;;;18.54;100.00
12868;BME280;33517;49.866;8.320;2023-07-28T01:07:40;99611.38;;;18.55;100.00
12868;BME280;33517;49.866;8.320;2023-07-28T01:10:35;99614.84;;;18.56;100.00
12868;BME280;33517;49.866;8.320;2023-07-28T01:13:27;99605.47;;;18.53;100.00
12868;BME280;33517;49.866;8.320;2023-07-28T01:16:19;99610.56;;;18.55;100.00
12868;BME280;33517;49.866;8.320;2023-07-28T01:19:11;99612.44;;;18.54;100.00
12868;BME280;33517;49.866;8.320;2023-07-28T01:22:21;99608.59;;;18.38;100.00
12868;BME280;33517;49.866;8.320;2023-07-28T01:25:27;99611.84;;;18.40;100.00
12868;BME280;33517;49.866;8.320;2023-07-28T01:28:22;99615.91;;;18.43;100.00
12868;BME280;33517;49.866;8.320;2023-07-28T01:31:14;99612.53;;;18.36;100.00
12868;BME280;33517;49.866;8.320;2023-07-28T01:34:06;99609.78;;;18.43;100.00
12868;BME280;33517;49.866;8.320;2023-07-28T01:36:58;99614.41;;;18.47;100.00
12868;BME280;33517;49.866;8.320;2023-07-28T01:39:50;99607.47;;;18.46;100.00
12868;BME280;33517;49.866;8.320;2023-07-28T01:42:41;99605.81;;;18.45;100.00
12868;BME280;33517;49.866;8.320;2023-07-28T01:45:35;99605.81;;;18.45;100.00
12868;BME280;33517;49.866;8.320;2023-07-28T01:48:27;99613.13;;;18.50;100.00
12868;BME280;33517;49.866;8.320;2023-07-28T01:51:18;99603.53;;;18.49;100.00
12868;BME280;33517;49.866;8.320;2023-07-28T01:54:10;99606.19;;;18.49;100.00
12868;BME280;33517;49.866;8.320;2023-07-28T01:57:03;99606.19;;;18.49;100.00
12868;BME280;33517;49.866;8.320;2023-07-28T01:59:55;99604.56;;;18.48;100.00
12868;BME280;33517;49.866;8.320;2023-07-28T02:02:48;99611.97;;;18.46;100.00
12868;BME280;33517;49.866;8.320;2023-07-28T02:05:40;99616.47;;;18.45;100.00
12868;BME280;33517;49.866;8.320;2023-07-28T02:08:32;99616.47;;;18.45;100.00
12868;BME280;33517;49.866;8.320;2023-07-28T02:11:23;99614.19;;;18.49;100.00
12868;BME280;33517;49.866;8.320;2023-07-28T02:14:15;99613.94;;;18.50;100.00
12868;BME280;33517;49.866;8.320;2023-07-28T02:17:07;99611.38;;;18.55;100.00
12868;BME280;33517;49.866;8.320;2023-07-28T02:20:01;99614.84;;;18.56;100.00
12868;BME280;33517;49.866;8.320;2023-07-28T02:22:54;99611.69;;;18.59;100.00
12868;BME280;33517;49.866;8.320;2023-07-28T02:25:46;99606.94;;;18.61;100.00
12868;BME280;33517;49.866;8.320;2023-07-28T02:28:39;99613.34;;;18.60;100.00
12868;BME280;33517;49.866;8.320;2023-07-28T02:31:31;99609.53;;;18.56;100.00
12868;BME280;33517;49.866;8.320;2023-07-28T02:34:22;99612.44;;;18.54;100.00
12868;BME280;33517;49.866;8.320;2023-07-28T02:37:16;99612.19;;;18.56;100.00
12868;BME280;33517;49.866;8.320;2023-07-28T02:40:09;99607.88;;;18.55;100.00
12868;BME280;33517;49.866;8.320;2023-07-28T02:43:01;99607.09;;;18.54;100.00
12868;BME280;33517;49.866;8.320;2023-07-28T02:45:53;99607.78;;;18.50;100.00
12868;BME280;33517;49.866;8.320;2023-07-28T02:48:45;99615.22;;;18.48;100.00
12868;BME280;33517;49.866;8.320;2023-07-28T02:51:37;99613.69;;;18.40;100.00
12868;BME280;33517;49.866;8.320;2023-07-28T02:54:31;99615.78;;;18.38;100.00
12868;BME280;33517;49.866;8.320;2023-07-28T02:57:23;99614.50;;;18.40;100.00
12868;BME280;33517;49.866;8.320;2023-07-28T03:00:15;99608.97;;;18.30;100.00
12868;BME280;33517;49.866;8.320;2023-07-28T03:03:07;99615.09;;;18.31;100.00
12868;BME280;33517;49.866;8.320;2023-07-28T03:06:01;99603.72;;;18.35;100.00
12868;BME280;33517;49.866;8.320;2023-07-28T03:08:52;99604.31;;;18.37;100.00
12868;BME280;33517;49.866;8.320;2023-07-28T03:11:46;99600.03;;;18.36;100.00
12868;BME280;33517;49.866;8.320;2023-07-28T03:14:38;99606.88;;;18.32;100.00
12868;BME280;33517;49.866;8.320;2023-07-28T03:17:29;99606.88;;;18.32;100.00
12868;BME280;33517;49.866;8.320;2023-07-28T03:20:21;99612.69;;;18.29;100.00
12868;BME280;33517;49.866;8.320;2023-07-28T03:23:13;99616.13;;;18.30;100.00
12868;BME280;33517;49.866;8.320;2023-07-28T03:26:05;99619.28;;;18.27;100.00
12868;BME280;33517;49.866;8.320;2023-07-28T03:28:59;99622.75;;;18.27;100.00
12868;BME280;33517;49.866;8.320;2023-07-28T03:31:50;99615.81;;;18.26;100.00
12868;BME280;33517;49.866;8.320;2023-07-28T03:34:42;99618.00;;;18.29;100.00
12868;BME280;33517;49.866;8.320;2023-07-28T03:37:34;99607.94;;;18.31;100.00
12868;BME280;33517;49.866;8.320;2023-07-28T03:40:26;99607.13;;;18.31;100.00
12868;BME280;33517;49.866;8.320;2023-07-28T03:43:18;99598.31;;;18.30;100.00
12868;BME280;33517;49.866;8.320;2023-07-28T03:46:11;99608.28;;;18.35;100.00
12868;BME280;33517;49.866;8.320;2023-07-28T03:49:03;99611.97;;;18.34;100.00
12868;BME280;33517;49.866;8.320;2023-07-28T03:51:55;99610.69;;;18.36;100.00
12868;BME280;33517;49.866;8.320;2023-07-28T03:54:47;99609.44;;;18.39;100.00
12868;BME280;33517;49.866;8.320;2023-07-28T03:57:40;99620.66;;;18.41;100.00
12868;BME280;33517;49.866;8.320;2023-07-28T04:00:33;99623.13;;;18.43;100.00
12868;BME280;33517;49.866;8.320;2023-07-28T04:03:26;99623.69;;;18.45;100.00
12868;BME280;33517;49.866;8.320;2023-07-28T04:06:18;99629.22;;;18.43;100.00
12868;BME280;33517;49.866;8.320;2023-07-28T04:09:12;99622.63;;;18.46;100.00
12868;BME280;33517;49.866;8.320;2023-07-28T04:12:04;99626.00;;;18.41;100.00
12868;BME280;33517;49.866;8.320;2023-07-28T04:14:56;99626.56;;;18.43;100.00
12868;BME280;33517;49.866;8.320;2023-07-28T04:17:48;99624.47;;;18.45;100.00
12868;BME280;33517;49.866;8.320;2023-07-28T04:20:41;99621.13;;;18.50;100.00
12868;BME280;33517;49.866;8.320;2023-07-28T04:23:33;99621.38;;;18.48;100.00
12868;BME280;33517;49.866;8.320;2023-07-28T04:26:25;99621.59;;;18.47;100.00
12868;BME280;33517;49.866;8.320;2023-07-28T04:29:17;99629.94;;;18.50;100.00
12868;BME280;33517;49.866;8.320;2023-07-28T04:32:09;99636.16;;;18.56;100.00
12868;BME280;33517;49.866;8.320;2023-07-28T04:35:01;99637.41;;;18.65;100.00
12868;BME280;33517;49.866;8.320;2023-07-28T04:37:54;99645.53;;;18.70;100.00
12868;BME280;33517;49.866;8.320;2023-07-28T04:40:46;99648.88;;;18.77;100.00
12868;BME280;33517;49.866;8.320;2023-07-28T04:43:38;99652.75;;;18.86;100.00
12868;BME280;33517;49.866;8.320;2023-07-28T04:46:29;99658.75;;;18.93;100.00
12868;BME280;33517;49.866;8.320;2023-07-28T04:49:21;99659.56;;;18.93;100.00
12868;BME280;33517;49.866;8.320;2023-07-28T04:52:13;99662.25;;;18.93;100.00
12868;BME280;33517;49.866;8.320;2023-07-28T04:55:07;99656.78;;;19.00;100.00
12868;BME280;33517;49.866;8.320;2023-07-28T04:57:59;99663.59;;;19.07;100.00
12868;BME280;33517;49.866;8.320;2023-07-28T05:00:51;99667.66;;;19.10;100.00
12868;BME280;33517;49.866;8.320;2023-07-28T05:03:43;99668.06;;;19.18;100.00
12868;BME280;33517;49.866;8.320;2023-07-28T05:06:34;99671.63;;;19.24;100.00
12868;BME280;33517;49.866;8.320;2023-07-28T05:09:26;99667.66;;;19.38;100.00
12868;BME280;33517;49.866;8.320;2023-07-28T05:12:20;99674.22;;;19.47;100.00
12868;BME280;33517;49.866;8.320;2023-07-28T05:15:14;99667.22;;;19.58;100.00
12868;BME280;33517;49.866;8.320;2023-07-28T05:18:06;99669.88;;;19.58;100.00
12868;BME280;33517;49.866;8.320;2023-07-28T05:20:59;99675.69;;;19.55;100.00
12868;BME280;33517;49.866;8.320;2023-07-28T05:23:51;99667.78;;;19.60;100.00
12868;BME280;33517;49.866;8.320;2023-07-28T05:26:43;99673.19;;;19.65;100.00
12868;BME280;33517;49.866;8.320;2023-07-28T05:29:36;99658.72;;;19.61;100.00
12868;BME280;33517;49.866;8.320;2023-07-28T05:32:28;99656.84;;;19.61;100.00
12868;BME280;33517;49.866;8.320;2023-07-28T05:35:20;99657.25;;;19.53;100.00
12868;BME280;33517;49.866;8.320;2023-07-28T05:38:12;99655.66;;;19.69;100.00
12868;BME280;33517;49.866;8.320;2023-07-28T05:41:04;99663.25;;;19.77;100.00
12868;BME280;33517;49.866;8.320;2023-07-28T05:43:56;99661.78;;;19.86;100.00
12868;BME280;33517;49.866;8.320;2023-07-28T05:46:49;99659.28;;;19.96;100.00
12868;BME280;33517;49.866;8.320;2023-07-28T05:49:41;99655.78;;;20.12;100.00
12868;BME280;33517;49.866;8.320;2023-07-28T05:52:33;99667.84;;;20.31;100.00
12868;BME280;33517;49.866;8.320;2023-07-28T05:55:24;99668.13;;;20.51;100.00
12868;BME280;33517;49.866;8.320;2023-07-28T05:58:16;99673.16;;;20.69;99.92
12868;BME280;33517;49.866;8.320;2023-07-28T06:01:09;99680.56;;;20.84;99.23
12868;BME280;33517;49.866;8.320;2023-07-28T06:04:03;99672.38;;;21.12;98.36
12868;BME280;33517;49.866;8.320;2023-07-28T06:06:56;99677.34;;;21.30;97.28
12868;BME280;33517;49.866;8.320;2023-07-28T06:09:48;99682.66;;;21.52;97.54
12868;BME280;33517;49.866;8.320;2023-07-28T06:12:40;99672.94;;;21.72;95.54
12868;BME280;33517;49.866;8.320;2023-07-28T06:15:32;99672.00;;;22.72;91.26
12868;BME280;33517;49.866;8.320;2023-07-28T06:18:25;99678.44;;;22.66;88.44
12868;BME280;33517;49.866;8.320;2023-07-28T06:21:18;99687.06;;;22.31;88.94
12868;BME280;33517;49.866;8.320;2023-07-28T06:24:11;99689.50;;;22.38;89.60
12868;BME280;33517;49.866;8.320;2023-07-28T06:27:04;99693.13;;;22.58;88.73
12868;BME280;33517;49.866;8.320;2023-07-28T06:29:59;99697.75;;;22.68;86.63
12868;BME280;33517;49.866;8.320;2023-07-28T06:32:51;99691.09;;;23.57;85.15
12868;BME280;33517;49.866;8.320;2023-07-28T06:35:43;99695.13;;;23.80;81.23
12868;BME280;33517;49.866;8.320;2023-07-28T06:38:36;99706.25;;;24.93;77.31
12868;BME280;33517;49.866;8.320;2023-07-28T06:41:29;99699.47;;;27.21;69.04
12868;BME280;33517;49.866;8.320;2023-07-28T06:44:21;99706.13;;;28.89;62.77
12868;BME280;33517;49.866;8.320;2023-07-28T06:47:13;99711.56;;;30.41;59.33
12868;BME280;33517;49.866;8.320;2023-07-28T06:50:06;99719.66;;;32.22;54.84
12868;BME280;33517;49.866;8.320;2023-07-28T06:52:58;99729.97;;;33.29;50.12
12868;BME280;33517;49.866;8.320;2023-07-28T06:55:58;99730.66;;;33.47;47.89
12868;BME280;33517;49.866;8.320;2023-07-28T06:58:50;99727.31;;;32.45;46.49
12868;BME280;33517;49.866;8.320;2023-07-28T07:01:45;99725.84;;;30.94;51.76
12868;BME280;33517;49.866;8.320;2023-07-28T07:04:58;99725.84;;;32.48;48.28
12868;BME280;33517;49.866;8.320;2023-07-28T07:07:50;99721.00;;;29.77;54.05
12868;BME280;33517;49.866;8.320;2023-07-28T07:10:47;99727.88;;;31.88;49.85
12868;BME280;33517;49.866;8.320;2023-07-28T07:13:40;99724.25;;;32.38;47.75
12868;BME280;33517;49.866;8.320;2023-07-28T07:16:34;99740.75;;;32.97;45.35
12868;BME280;33517;49.866;8.320;2023-07-28T07:19:27;99730.00;;;30.61;48.83
12868;BME280;33517;49.866;8.320;2023-07-28T07:22:19;99730.28;;;30.51;50.07
12868;BME280;33517;49.866;8.320;2023-07-28T07:25:11;99728.97;;;29.60;51.49
12868;BME280;33517;49.866;8.320;2023-07-28T07:28:03;99729.84;;;27.87;55.97
12868;BME280;33517;49.866;8.320;2023-07-28T07:30:57;99733.16;;;27.05;60.22
12868;BME280;33517;49.866;8.320;2023-07-28T07:33:50;99732.69;;;26.51;62.02
12868;BME280;33517;49.866;8.320;2023-07-28T07:36:42;99734.38;;;25.25;65.26
12868;BME280;33517;49.866;8.320;2023-07-28T07:39:34;99731.13;;;24.44;68.90
12868;BME280;33517;49.866;8.320;2023-07-28T07:42:28;99749.16;;;23.78;71.67
12868;BME280;33517;49.866;8.320;2023-07-28T07:45:32;99743.72;;;23.53;72.70
12868;BME280;33517;49.866;8.320;2023-07-28T07:48:25;99744.28;;;23.60;73.91
12868;BME280;33517;49.866;8.320;2023-07-28T07:51:17;99754.00;;;23.97;72.57
12868;BME280;33517;49.866;8.320;2023-07-28T07:54:09;99762.09;;;24.32;71.64
12868;BME280;33517;49.866;8.320;2023-07-28T07:57:01;99758.31;;;24.33;69.92
12868;BME280;33517;49.866;8.320;2023-07-28T07:59:54;99762.84;;;24.57;70.19
12868;BME280;33517;49.866;8.320;2023-07-28T08:02:46;99772.91;;;25.21;67.94
12868;BME280;33517;49.866;8.320;2023-07-28T08:05:39;99761.56;;;25.39;65.84
12868;BME280;33517;49.866;8.320;2023-07-28T08:08:31;99761.44;;;25.00;67.51
12868;BME280;33517;49.866;8.320;2023-07-28T08:11:23;99761.72;;;24.89;67.73
12868;BME280;33517;49.866;8.320;2023-07-28T08:14:15;99769.06;;;24.53;69.54
12868;BME280;33517;49.866;8.320;2023-07-28T08:17:08;99764.53;;;24.13;70.81
12868;BME280;33517;49.866;8.320;2023-07-28T08:20:01;99765.88;;;24.11;71.07
12868;BME280;33517;49.866;8.320;2023-07-28T08:22:55;99764.75;;;24.37;71.30
12868;BME280;33517;49.866;8.320;2023-07-28T08:25:47;99770.63;;;27.35;62.23
12868;BME280;33517;49.866;8.320;2023-07-28T08:28:40;99777.59;;;29.70;54.88
12868;BME280;33517;49.866;8.320;2023-07-28T08:31:32;99770.28;;;30.15;52.64
12868;BME280;33517;49.866;8.320;2023-07-28T08:34:24;99770.22;;;28.67;54.15
12868;BME280;33517;49.866;8.320;2023-07-28T08:37:16;99761.75;;;30.52;50.39
12868;BME280;33517;49.866;8.320;2023-07-28T08:40:11;99770.00;;;32.79;45.54
12868;BME280;33517;49.866;8.320;2023-07-28T08:43:03;99776.03;;;35.27;43.03
12868;BME280;33517;49.866;8.320;2023-07-28T08:45:56;99780.56;;;35.47;42.43
12868;BME280;33517;49.866;8.320;2023-07-28T08:48:53;99783.59;;;36.09;37.71
12868;BME280;33517;49.866;8.320;2023-07-28T08:51:48;99786.84;;;33.69;40.44
12868;BME280;33517;49.866;8.320;2023-07-28T08:54:41;99773.69;;;30.42;47.27
12868;BME280;33517;49.866;8.320;2023-07-28T08:57:35;99781.47;;;29.01;51.37
12868;BME280;33517;49.866;8.320;2023-07-28T09:00:27;99784.44;;;32.08;45.61
12868;BME280;33517;49.866;8.320;2023-07-28T09:03:19;99782.03;;;34.60;40.61
12868;BME280;33517;49.866;8.320;2023-07-28T09:06:13;99784.53;;;34.32;40.39
12868;BME280;33517;49.866;8.320;2023-07-28T09:09:06;99792.19;;;34.39;40.67
12868;BME280;33517;49.866;8.320;2023-07-28T09:12:00;99791.06;;;36.83;36.14
12868;BME280;33517;49.866;8.320;2023-07-28T09:14:57;99786.91;;;33.81;39.57
12868;BME280;33517;49.866;8.320;2023-07-28T09:17:49;99797.84;;;29.86;48.15
12868;BME280;33517;49.866;8.320;2023-07-28T09:20:43;99794.47;;;28.58;52.69
12868;BME280;33517;49.866;8.320;2023-07-28T09:23:35;99786.28;;;27.38;55.64
12868;BME280;33517;49.866;8.320;2023-07-28T09:26:36;99782.56;;;26.82;57.62
12868;BME280;33517;49.866;8.320;2023-07-28T09:29:28;99787.94;;;26.29;60.04
12868;BME280;33517;49.866;8.320;2023-07-28T09:32:30;99787.88;;;28.32;55.60
12868;BME280;33517;49.866;8.320;2023-07-28T09:35:23;99786.69;;;28.84;53.39
12868;BME280;33517;49.866;8.320;2023-07-28T09:38:15;99790.09;;;29.93;51.00
12868;BME280;33517;49.866;8.320;2023-07-28T09:41:10;99796.31;;;28.90;52.39
12868;BME280;33517;49.866;8.320;2023-07-28T09:44:02;99791.34;;;28.19;55.51
12868;BME280;33517;49.866;8.320;2023-07-28T09:46:55;99788.66;;;28.65;54.56
12868;BME280;33517;49.866;8.320;2023-07-28T09:49:50;99793.81;;;28.15;55.52
12868;BME280;33517;49.866;8.320;2023-07-28T09:52:46;99795.63;;;26.75;58.54
12868;BME280;33517;49.866;8.320;2023-07-28T09:55:39;99793.94;;;26.50;60.16
12868;BME280;33517;49.866;8.320;2023-07-28T09:58:35;99791.03;;;26.75;60.47
12868;BME280;33517;49.866;8.320;2023-07-28T10:01:30;99784.31;;;27.62;58.40
12868;BME280;33517;49.866;8.320;2023-07-28T10:04:23;99787.38;;;28.76;56.13
12868;BME280;33517;49.866;8.320;2023-07-28T10:07:17;99791.91;;;29.21;51.98
12868;BME280;33517;49.866;8.320;2023-07-28T10:10:11;99792.75;;;30.07;50.63
12868;BME280;33517;49.866;8.320;2023-07-28T10:13:03;99797.88;;;31.14;49.13
12868;BME280;33517;49.866;8.320;2023-07-28T10:15:55;99803.44;;;31.09;47.03
12868;BME280;33517;49.866;8.320;2023-07-28T10:18:54;99798.84;;;32.00;46.96
12868;BME280;33517;49.866;8.320;2023-07-28T10:21:47;99805.00;;;29.82;49.12
12868;BME280;33517;49.866;8.320;2023-07-28T10:24:54;99792.66;;;30.20;48.90
12868;BME280;33517;49.866;8.320;2023-07-28T10:27:47;99785.16;;;30.17;49.29
12868;BME280;33517;49.866;8.320;2023-07-28T10:30:51;99786.28;;;29.04;51.16
12868;BME280;33517;49.866;8.320;2023-07-28T10:33:46;99806.16;;;28.21;53.62
12868;BME280;33517;49.866;8.320;2023-07-28T10:36:38;99797.97;;;28.27;53.98
12868;BME280;33517;49.866;8.320;2023-07-28T10:39:34;99808.81;;;27.71;55.38
12868;BME280;33517;49.866;8.320;2023-07-28T10:42:27;99807.81;;;26.96;57.55
12868;BME280;33517;49.866;8.320;2023-07-28T10:45:19;99808.13;;;26.32;59.19
12868;BME280;33517;49.866;8.320;2023-07-28T10:48:12;99802.06;;;25.73;61.26
12868;BME280;33517;49.866;8.320;2023-07-28T10:51:04;99811.84;;;25.59;63.04
12868;BME280;33517;49.866;8.320;2023-07-28T10:53:56;99809.19;;;25.48;63.57
12868;BME280;33517;49.866;8.320;2023-07-28T10:56:49;99810.06;;;25.29;64.10
12868;BME280;33517;49.866;8.320;2023-07-28T10:59:42;99808.22;;;25.19;64.38
12868;BME280;33517;49.866;8.320;2023-07-28T11:02:37;99809.25;;;25.43;64.60
12868;BME280;33517;49.866;8.320;2023-07-28T11:05:30;99808.38;;;25.48;64.09
12868;BME280;33517;49.866;8.320;2023-07-28T11:08:22;99813.81;;;25.43;64.78
12868;BME280;33517;49.866;8.320;2023-07-28T11:11:14;99811.97;;;25.23;66.09
12868;BME280;33517;49.866;8.320;2023-07-28T11:14:07;99809.56;;;25.17;67.48
12868;BME280;33517;49.866;8.320;2023-07-28T11:17:01;99817.13;;;25.10;67.35
12868;BME280;33517;49.866;8.320;2023-07-28T11:19:53;99818.13;;;25.29;67.25
12868;BME280;33517;49.866;8.320;2023-07-28T11:22:53;99816.06;;;25.75;66.07
12868;BME280;33517;49.866;8.320;2023-07-28T11:25:46;99819.41;;;25.51;65.63
12868;BME280;33517;49.866;8.320;2023-07-28T11:28:44;99824.31;;;25.34;67.63
12868;BME280;33517;49.866;8.320;2023-07-28T11:31:36;99831.91;;;25.22;67.85
12868;BME280;33517;49.866;8.320;2023-07-28T11:34:35;99822.31;;;24.81;69.61
12868;BME280;33517;49.866;8.320;2023-07-28T11:37:27;99823.13;;;24.61;70.21
12868;BME280;33517;49.866;8.320;2023-07-28T11:40:21;99821.25;;;24.57;70.54
12868;BME280;33517;49.866;8.320;2023-07-28T11:43:13;99818.56;;;24.42;71.19
12868;BME280;33517;49.866;8.320;2023-07-28T11:46:32;99823.69;;;24.33;71.35
12868;BME280;33517;49.866;8.320;2023-07-28T11:49:28;99821.75;;;24.94;70.47
12868;BME280;33517;49.866;8.320;2023-07-28T11:52:24;99824.28;;;25.54;68.12
12868;BME280;33517;49.866;8.320;2023-07-28T11:55:21;99832.16;;;25.21;67.89
12868;BME280;33517;49.866;8.320;2023-07-28T11:58:14;99825.72;;;25.17;68.58
12868;BME280;33517;49.866;8.320;2023-07-28T12:01:10;99827.88;;;25.15;68.60
12868;BME280;33517;49.866;8.320;2023-07-28T12:04:20;99829.25;;;25.07;69.12
12868;BME280;33517;49.866;8.320;2023-07-28T12:07:16;99829.53;;;24.96;68.75
12868;BME280;33517;49.866;8.320;2023-07-28T12:10:11;99824.22;;;24.86;69.59
12868;BME280;33517;49.866;8.320;2023-07-28T12:13:04;99821.75;;;24.94;69.37
12868;BME280;33517;49.866;8.320;2023-07-28T12:15:57;99826.31;;;24.99;68.91
12868;BME280;33517;49.866;8.320;2023-07-28T12:18:57;99830.63;;;25.00;68.55
12868;BME280;33517;49.866;8.320;2023-07-28T12:21:51;99826.34;;;24.94;68.48
12868;BME280;33517;49.866;8.320;2023-07-28T12:24:43;99823.66;;;24.79;69.16
12868;BME280;33517;49.866;8.320;2023-07-28T12:27:37;99826.84;;;24.96;69.49
12868;BME280;33517;49.866;8.320;2023-07-28T12:30:29;99830.25;;;25.26;68.14
12868;BME280;33517;49.866;8.320;2023-07-28T12:33:27;99822.31;;;25.65;67.00
12868;BME280;33517;49.866;8.320;2023-07-28T12:36:19;99815.06;;;26.43;64.68
12868;BME280;33517;49.866;8.320;2023-07-28T12:39:12;99812.66;;;26.70;63.70
12868;BME280;33517;49.866;8.320;2023-07-28T12:42:05;99809.19;;;26.93;62.35
12868;BME280;33517;49.866;8.320;2023-07-28T12:44:58;99816.44;;;27.21;62.14
12868;BME280;33517;49.866;8.320;2023-07-28T12:47:51;99818.03;;;26.99;61.67
12868;BME280;33517;49.866;8.320;2023-07-28T12:50:44;99818.75;;;27.33;62.06
12868;BME280;33517;49.866;8.320;2023-07-28T12:53:37;99812.13;;;27.20;60.40
12868;BME280;33517;49.866;8.320;2023-07-28T12:56:29;99813.34;;;27.33;61.59
12868;BME280;33517;49.866;8.320;2023-07-28T12:59:22;99822.38;;;27.47;60.25
12868;BME280;33517;49.866;8.320;2023-07-28T13:02:15;99817.22;;;27.88;59.17
12868;BME280;33517;49.866;8.320;2023-07-28T13:05:08;99829.59;;;28.12;57.58
12868;BME280;33517;49.866;8.320;2023-07-28T13:08:01;99825.97;;;27.80;58.92
12868;BME280;33517;49.866;8.320;2023-07-28T13:10:53;99830.28;;;27.62;59.00
12868;BME280;33517;49.866;8.320;2023-07-28T13:13:46;99826.78;;;27.62;59.30
12868;BME280;33517;49.866;8.320;2023-07-28T13:16:39;99836.03;;;26.85;61.34
12868;BME280;33517;49.866;8.320;2023-07-28T13:19:32;99836.25;;;26.60;61.58
12868;BME280;33517;49.866;8.320;2023-07-28T13:22:25;99840.56;;;26.27;62.23
12868;BME280;33517;49.866;8.320;2023-07-28T13:25:17;99842.06;;;25.99;62.65
12868;BME280;33517;49.866;8.320;2023-07-28T13:28:09;99841.56;;;25.92;63.50
12868;BME280;33517;49.866;8.320;2023-07-28T13:31:01;99839.03;;;26.11;63.50
12868;BME280;33517;49.866;8.320;2023-07-28T13:33:53;99843.69;;;25.95;64.37
12868;BME280;33517;49.866;8.320;2023-07-28T13:36:47;99843.13;;;25.54;64.96
12868;BME280;33517;49.866;8.320;2023-07-28T13:39:39;99841.81;;;25.37;64.93
12868;BME280;33517;49.866;8.320;2023-07-28T13:42:31;99849.94;;;25.32;65.89
12868;BME280;33517;49.866;8.320;2023-07-28T13:45:23;99839.41;;;25.40;66.21
12868;BME280;33517;49.866;8.320;2023-07-28T13:48:18;99840.53;;;25.19;67.28
12868;BME280;33517;49.866;8.320;2023-07-28T13:51:11;99841.13;;;24.96;68.19
12868;BME280;33517;49.866;8.320;2023-07-28T13:54:04;99836.03;;;24.90;67.73
12868;BME280;33517;49.866;8.320;2023-07-28T13:56:56;99832.00;;;24.62;68.38
12868;BME280;33517;49.866;8.320;2023-07-28T13:59:48;99828.22;;;24.48;nan
12868;BME280;33517;49.866;8.320;2023-07-28T14:02:40;99828.53;;;24.41;69.51
12868;BME280;33517;49.866;8.320;2023-07-28T14:05:32;99826.66;;;24.32;69.99
12868;BME280;33517;49.866;8.320;2023-07-28T14:08:25;99824.47;;;24.14;71.12
12868;BME280;33517;49.866;8.320;2023-07-28T14:11:18;99832.56;;;24.44;70.99
12868;BME280;33517;49.866;8.320;2023-07-28T14:14:10;99831.47;;;24.60;69.36
12868;BME280;33517;49.866;8.320;2023-07-28T14:17:03;99834.44;;;24.53;69.88
12868;BME280;33517;49.866;8.320;2023-07-28T14:19:55;99821.25;;;24.47;69.47
12868;BME280;33517;49.866;8.320;2023-07-28T14:22:47;99829.31;;;24.27;69.92
12868;BME280;33517;49.866;8.320;2023-07-28T14:25:40;99837.38;;;24.22;70.23
12868;BME280;33517;49.866;8.320;2023-07-28T14:28:35;99825.56;;;24.38;69.87
12868;BME280;33517;49.866;8.320;2023-07-28T14:31:31;99833.88;;;24.21;70.19
12868;BME280;33517;49.866;8.320;2023-07-28T14:34:24;99827.16;;;24.24;70.79
12868;BME280;33517;49.866;8.320;2023-07-28T14:37:16;99836.31;;;24.43;70.50
12868;BME280;33517;49.866;8.320;2023-07-28T14:40:09;99840.34;;;24.81;68.86
12868;BME280;33517;49.866;8.320;2023-07-28T14:43:01;99838.75;;;24.75;68.45
12868;BME280;33517;49.866;8.320;2023-07-28T14:45:59;99830.94;;;24.58;68.95
12868;BME280;33517;49.866;8.320;2023-07-28T14:48:51;99821.78;;;24.64;69.25
12868;BME280;33517;49.866;8.320;2023-07-28T14:51:43;99829.59;;;24.60;69.20
12868;BME280;33517;49.866;8.320;2023-07-28T14:54:35;99826.34;;;24.48;69.76
12868;BME280;33517;49.866;8.320;2023-07-28T14:57:27;99832.81;;;24.57;70.06
12868;BME280;33517;49.866;8.320;2023-07-28T15:00:19;99834.19;;;24.40;71.43
12868;BME280;33517;49.866;8.320;2023-07-28T15:03:12;99830.94;;;24.18;72.21
12868;BME280;33517;49.866;8.320;2023-07-28T15:06:04;99830.13;;;24.12;73.01
12868;BME280;33517;49.866;8.320;2023-07-28T15:08:56;99838.19;;;24.07;73.44
12868;BME280;33517;49.866;8.320;2023-07-28T15:11:48;99838.19;;;24.22;72.71